createdAt,value
2019-01-25T00:00:11.167Z,49.18
2019-01-25T00:02:39.223Z,55.05
2019-01-25T00:05:08.311Z,53.92
2019-01-25T00:07:36.394Z,56.48
2019-01-25T00:10:06.002Z,46.33
2019-01-25T00:12:34.107Z,58.42
2019-01-25T00:15:02.197Z,50.70
2019-01-25T00:17:30.281Z,56.73
2019-01-25T00:19:58.375Z,53.05
2019-01-25T00:22:26.410Z,50.15
2019-01-25T00:24:54.479Z,54.38
2019-01-25T00:27:22.534Z,49.53
2019-01-25T00:29:50.620Z,50.38
2019-01-25T00:32:18.695Z,46.80
2019-01-25T00:34:46.766Z,45.75
2019-01-25T00:37:14.886Z,51.68
2019-01-25T00:39:42.969Z,51.92
2019-01-25T00:42:11.034Z,49.75
2019-01-25T00:44:39.090Z,47.13
2019-01-25T00:47:07.166Z,47.80
2019-01-25T00:49:35.306Z,42.17
2019-01-25T00:52:03.434Z,42.45
2019-01-25T00:54:31.518Z,44.00
2019-01-25T00:56:59.591Z,43.78
2019-01-25T00:59:27.690Z,49.85
2019-01-25T01:01:55.798Z,46.33
2019-01-25T01:04:23.874Z,46.88
2019-01-25T01:06:51.958Z,46.08
2019-01-25T01:09:20.031Z,47.45
2019-01-25T01:11:48.088Z,45.98
2019-01-25T01:14:16.138Z,49.60
2019-01-25T01:16:44.251Z,46.30
2019-01-25T01:19:12.314Z,48.02
2019-01-25T01:21:40.374Z,44.73
2019-01-25T01:24:08.427Z,49.10
2019-01-25T01:26:36.490Z,50.08
2019-01-25T01:29:04.623Z,45.10
2019-01-25T01:31:32.684Z,49.42
2019-01-25T01:34:00.762Z,52.53
2019-01-25T01:36:28.812Z,48.08
2019-01-25T01:38:56.874Z,50.33
2019-01-25T01:41:24.930Z,48.25
2019-01-25T01:43:52.986Z,46.00
2019-01-25T01:46:21.062Z,54.50
2019-01-25T01:48:49.121Z,51.35
2019-01-25T01:51:17.178Z,49.65
2019-01-25T01:53:45.248Z,50.98
2019-01-25T01:56:13.325Z,54.75
2019-01-25T01:58:41.407Z,45.73
2019-01-25T02:01:09.543Z,46.15
2019-01-25T02:03:37.977Z,44.48
2019-01-25T02:06:06.067Z,41.80
2019-01-25T02:08:34.122Z,45.90
2019-01-25T02:11:02.182Z,48.42
2019-01-25T02:13:30.272Z,49.05
2019-01-25T02:15:58.326Z,52.33
2019-01-25T02:18:26.406Z,48.85
2019-01-25T02:20:54.533Z,51.63
2019-01-25T02:23:22.602Z,47.23
2019-01-25T02:25:50.661Z,46.45
2019-01-25T02:28:18.738Z,51.15
2019-01-25T02:30:46.798Z,52.98
2019-01-25T02:33:14.856Z,45.98
2019-01-25T02:35:42.922Z,48.02
2019-01-25T02:38:11.126Z,47.70
2019-01-25T02:40:39.504Z,46.83
2019-01-25T02:43:07.731Z,46.28
2019-01-25T02:45:35.798Z,50.55
2019-01-25T02:48:04.242Z,52.88
2019-01-25T02:50:32.319Z,47.90
2019-01-25T02:53:03.980Z,53.90
2019-01-25T02:55:30.184Z,51.23
2019-01-25T02:57:58.256Z,43.33
2019-01-25T03:00:26.392Z,51.58
2019-01-25T03:02:54.713Z,52.45
2019-01-25T03:05:23.060Z,46.73
2019-01-25T03:07:51.382Z,46.77
2019-01-25T03:10:28.237Z,44.48
2019-01-25T03:12:50.805Z,51.10
2019-01-25T03:15:20.476Z,50.23
2019-01-25T03:17:48.543Z,47.25
2019-01-25T03:20:16.778Z,49.35
2019-01-25T03:22:44.826Z,53.63
2019-01-25T03:25:14.458Z,52.90
2019-01-25T03:27:42.546Z,55.88
2019-01-25T03:30:12.371Z,52.10
2019-01-25T03:32:40.467Z,50.15
2019-01-25T03:35:09.704Z,55.20
2019-01-25T03:37:37.787Z,59.30
2019-01-25T03:40:07.850Z,51.88
2019-01-25T03:42:36.028Z,56.28
2019-01-25T03:45:05.619Z,53.05
2019-01-25T03:47:33.682Z,58.95
2019-01-25T03:50:01.746Z,52.93
2019-01-25T03:52:29.950Z,55.52
2019-01-25T03:54:58.015Z,55.03
2019-01-25T03:57:26.162Z,54.10
2019-01-25T03:59:54.199Z,52.50
2019-01-25T04:02:22.250Z,52.17
2019-01-25T04:04:50.315Z,53.25
2019-01-25T04:07:18.378Z,48.60
2019-01-25T04:09:46.439Z,52.55
2019-01-25T04:12:14.515Z,48.23
2019-01-25T04:14:42.558Z,50.25
2019-01-25T04:17:10.623Z,50.88
2019-01-25T04:19:38.673Z,59.05
2019-01-25T04:22:06.732Z,70.80
2019-01-25T04:24:34.862Z,60.70
2019-01-25T04:27:02.918Z,56.60
2019-01-25T04:29:30.987Z,50.43
2019-01-25T04:31:59.039Z,49.70
2019-01-25T04:34:27.103Z,57.85
2019-01-25T04:36:55.194Z,56.58
2019-01-25T04:39:23.247Z,59.48
2019-01-25T04:41:51.307Z,56.08
2019-01-25T04:44:19.362Z,55.40
2019-01-25T04:46:47.419Z,52.23
2019-01-25T04:49:15.486Z,58.63
2019-01-25T04:51:44.428Z,62.13
2019-01-25T04:54:12.563Z,55.45
2019-01-25T04:56:40.626Z,59.95
2019-01-25T04:59:08.680Z,60.03
2019-01-25T05:01:36.828Z,55.23
2019-01-25T05:04:04.975Z,62.62
2019-01-25T05:06:33.694Z,67.78
2019-01-25T05:09:01.926Z,60.03
2019-01-25T05:11:29.978Z,64.67
2019-01-25T05:13:58.051Z,59.58
2019-01-25T05:16:26.087Z,61.23
2019-01-25T05:18:54.162Z,57.98
2019-01-25T05:21:22.287Z,63.02
2019-01-25T05:23:50.338Z,58.45
2019-01-25T05:26:18.399Z,62.08
2019-01-25T05:28:46.527Z,59.90
2019-01-25T05:31:14.583Z,62.05
2019-01-25T05:33:45.807Z,60.00
2019-01-25T05:36:13.882Z,68.92
2019-01-25T05:38:43.745Z,66.10
2019-01-25T05:41:11.790Z,69.65
2019-01-25T05:43:40.690Z,71.22
2019-01-25T05:46:08.759Z,71.75
2019-01-25T05:48:36.806Z,65.78
2019-01-25T05:51:05.047Z,65.52
2019-01-25T05:53:33.089Z,62.90
2019-01-25T05:56:01.226Z,67.35
2019-01-25T05:58:29.290Z,72.03
2019-01-25T06:00:57.353Z,66.70
2019-01-25T06:03:25.402Z,72.97
2019-01-25T06:05:56.462Z,66.92
2019-01-25T06:08:31.482Z,64.30
2019-01-25T06:11:00.401Z,73.02
2019-01-25T06:13:28.451Z,70.65
2019-01-25T06:15:56.520Z,76.02
2019-01-25T06:18:24.576Z,73.05
2019-01-25T06:20:53.290Z,68.12
2019-01-25T06:23:21.342Z,71.42
2019-01-25T06:25:52.726Z,71.60
2019-01-25T06:28:20.820Z,61.80
2019-01-25T06:30:48.908Z,70.20
2019-01-25T06:33:16.994Z,70.45
2019-01-25T06:35:45.051Z,70.10
2019-01-25T06:38:13.090Z,72.55
2019-01-25T06:40:41.276Z,74.20
2019-01-25T06:43:09.318Z,69.72
2019-01-25T06:45:37.362Z,72.75
2019-01-25T06:48:06.073Z,70.10
2019-01-25T06:50:34.134Z,67.47
2019-01-25T06:53:02.193Z,76.00
2019-01-25T06:55:30.262Z,72.92
2019-01-25T06:58:02.995Z,66.00
2019-01-25T07:00:49.251Z,69.82
2019-01-25T07:03:17.293Z,69.80
2019-01-25T07:05:45.375Z,75.50
2019-01-25T07:08:15.084Z,69.03
2019-01-25T07:10:43.160Z,70.83
2019-01-25T07:13:11.206Z,72.92
2019-01-25T07:15:39.272Z,81.63
2019-01-25T07:18:07.342Z,125.18
2019-01-25T07:20:35.392Z,88.60
2019-01-25T07:23:03.522Z,79.25
2019-01-25T07:25:31.579Z,72.97
2019-01-25T07:27:59.635Z,75.57
2019-01-25T07:30:27.692Z,75.03
2019-01-25T07:32:55.743Z,78.80
2019-01-25T07:35:23.794Z,74.00
2019-01-25T07:37:51.849Z,71.70
2019-01-25T07:40:19.991Z,76.75
2019-01-25T07:42:48.059Z,71.00
2019-01-25T07:45:16.314Z,79.22
2019-01-25T07:47:44.522Z,74.58
2019-01-25T07:50:12.768Z,69.12
2019-01-25T07:52:41.179Z,74.07
2019-01-25T07:55:13.061Z,76.53
2019-01-25T07:57:41.184Z,77.58
2019-01-25T08:00:10.609Z,77.50
2019-01-25T08:02:38.663Z,77.62
2019-01-25T08:05:07.806Z,75.95
2019-01-25T08:07:35.859Z,90.92
2019-01-25T08:10:05.496Z,84.50
2019-01-25T08:12:33.538Z,74.95
2019-01-25T08:15:01.819Z,76.45
2019-01-25T08:17:29.967Z,83.42
2019-01-25T08:19:59.338Z,73.12
2019-01-25T08:22:27.865Z,80.07
2019-01-25T08:24:57.920Z,71.90
2019-01-25T08:27:26.046Z,82.02
2019-01-25T08:29:54.086Z,80.42
2019-01-25T08:32:23.998Z,80.17
2019-01-25T08:34:53.057Z,76.92
2019-01-25T08:37:21.170Z,75.80
2019-01-25T08:39:49.247Z,79.20
2019-01-25T08:42:17.316Z,81.70
2019-01-25T08:44:45.343Z,79.20
2019-01-25T08:47:13.523Z,78.05
2019-01-25T08:49:41.724Z,76.17
2019-01-25T08:52:12.954Z,80.05
2019-01-25T08:54:41.215Z,80.50
2019-01-25T08:57:09.303Z,80.15
2019-01-25T08:59:37.450Z,83.62
2019-01-25T09:02:05.515Z,83.17
2019-01-25T09:04:33.572Z,95.50
2019-01-25T09:07:01.651Z,86.42
2019-01-25T09:09:29.701Z,84.15
2019-01-25T09:11:58.816Z,92.37
2019-01-25T09:14:26.862Z,83.78
2019-01-25T09:16:54.923Z,84.10
2019-01-25T09:19:22.969Z,79.67
2019-01-25T09:21:51.028Z,84.85
2019-01-25T09:24:19.108Z,85.50
2019-01-25T09:26:47.160Z,86.30
2019-01-25T09:29:15.225Z,87.85
2019-01-25T09:31:43.275Z,91.75
2019-01-25T09:34:11.329Z,96.30
2019-01-25T09:36:39.424Z,86.32
2019-01-25T09:39:07.554Z,86.57
2019-01-25T09:41:35.608Z,93.55
2019-01-25T09:44:03.755Z,94.67
2019-01-25T09:46:31.808Z,96.17
2019-01-25T09:48:59.862Z,94.20
2019-01-25T09:51:27.910Z,91.50
2019-01-25T09:53:56.021Z,91.08
2019-01-25T09:56:24.085Z,98.20
2019-01-25T09:58:52.134Z,95.42
2019-01-25T10:01:20.182Z,85.85
2019-01-25T10:03:48.246Z,84.65
2019-01-25T10:06:16.298Z,98.07
2019-01-25T10:08:44.370Z,99.62
2019-01-25T10:11:12.422Z,94.77
2019-01-25T10:13:40.523Z,100.15
2019-01-25T10:16:08.621Z,98.78
2019-01-25T10:18:36.668Z,95.92
2019-01-25T10:21:04.724Z,84.42
2019-01-25T10:23:32.799Z,91.22
2019-01-25T10:26:00.850Z,88.78
2019-01-25T10:28:28.922Z,95.40
2019-01-25T10:30:57.038Z,95.65
2019-01-25T10:33:25.099Z,91.92
2019-01-25T10:35:53.206Z,89.35
2019-01-25T10:38:21.266Z,93.07
2019-01-25T10:40:49.319Z,90.17
2019-01-25T10:43:17.399Z,90.42
2019-01-25T10:45:45.537Z,95.75
2019-01-25T10:48:13.632Z,88.50
2019-01-25T10:50:41.683Z,92.15
2019-01-25T10:53:09.733Z,91.30
2019-01-25T10:55:39.121Z,100.65
2019-01-25T10:58:07.520Z,89.70
2019-01-25T11:00:35.575Z,93.78
2019-01-25T11:03:04.226Z,84.77
2019-01-25T11:05:32.279Z,94.97
2019-01-25T11:08:00.342Z,83.15
2019-01-25T11:10:28.426Z,95.20
2019-01-25T11:13:00.959Z,98.15
2019-01-25T11:15:26.305Z,100.65
2019-01-25T11:17:54.408Z,92.60
2019-01-25T11:20:25.670Z,95.45
2019-01-25T11:22:53.930Z,99.62
2019-01-25T11:25:23.722Z,96.32
2019-01-25T11:27:51.787Z,86.82
2019-01-25T11:30:19.938Z,91.95
2019-01-25T11:32:48.002Z,99.85
2019-01-25T11:35:16.334Z,105.07
2019-01-25T11:37:44.415Z,103.07
2019-01-25T11:40:22.950Z,100.20
2019-01-25T11:42:51.044Z,100.58
2019-01-25T11:45:19.107Z,99.75
2019-01-25T11:47:47.452Z,102.25
2019-01-25T11:50:19.028Z,100.87
2019-01-25T11:52:47.092Z,102.32
2019-01-25T11:55:16.126Z,91.30
2019-01-25T11:57:44.266Z,106.12
2019-01-25T12:00:22.651Z,105.58
2019-01-25T12:02:51.006Z,105.78
2019-01-25T12:05:20.131Z,101.15
2019-01-25T12:07:48.863Z,111.03
2019-01-25T12:10:18.426Z,106.30
2019-01-25T12:12:46.507Z,99.65
2019-01-25T12:15:15.530Z,95.80
2019-01-25T12:17:43.666Z,108.22
2019-01-25T12:20:13.326Z,109.03
2019-01-25T12:22:41.445Z,104.45
2019-01-25T12:25:10.273Z,101.67
2019-01-25T12:27:38.346Z,100.47
2019-01-25T12:30:20.027Z,98.82
2019-01-25T12:32:48.091Z,103.17
2019-01-25T12:35:16.168Z,105.35
2019-01-25T12:37:44.230Z,101.78
2019-01-25T12:40:13.574Z,122.22
2019-01-25T12:42:41.650Z,104.43
2019-01-25T12:45:14.154Z,107.58
2019-01-25T12:47:42.214Z,103.50
2019-01-25T12:50:14.600Z,108.57
2019-01-25T12:52:42.700Z,103.07
2019-01-25T12:55:10.835Z,97.67
2019-01-25T12:57:38.899Z,110.68
2019-01-25T13:00:08.528Z,101.97
2019-01-25T13:02:36.579Z,110.32
2019-01-25T13:05:06.183Z,119.02
2019-01-25T13:07:34.331Z,106.43
2019-01-25T13:10:02.497Z,104.32
2019-01-25T13:12:30.555Z,110.40
2019-01-25T13:15:00.511Z,107.45
2019-01-25T13:17:28.583Z,104.20
2019-01-25T13:19:56.646Z,100.40
2019-01-25T13:22:24.747Z,108.17
2019-01-25T13:24:52.804Z,105.83
2019-01-25T13:27:20.867Z,102.87
2019-01-25T13:29:48.934Z,101.40
2019-01-25T13:32:17.083Z,110.50
2019-01-25T13:34:45.183Z,105.05
2019-01-25T13:37:13.246Z,102.90
2019-01-25T13:39:41.326Z,101.80
2019-01-25T13:42:09.411Z,108.60
2019-01-25T13:44:37.489Z,103.07
2019-01-25T13:47:05.555Z,103.05
2019-01-25T13:49:33.615Z,110.32
2019-01-25T13:52:01.722Z,105.15
2019-01-25T13:54:29.805Z,103.12
2019-01-25T13:56:57.860Z,100.20
2019-01-25T13:59:25.938Z,110.25
2019-01-25T14:01:56.217Z,101.58
2019-01-25T14:04:23.830Z,105.90
2019-01-25T14:06:51.899Z,102.80
2019-01-25T14:09:19.961Z,99.77
2019-01-25T14:11:48.150Z,117.37
2019-01-25T14:14:16.221Z,101.22
2019-01-25T14:16:44.282Z,102.42
2019-01-25T14:19:12.398Z,105.43
2019-01-25T14:21:40.470Z,105.83
2019-01-25T14:24:08.843Z,97.40
2019-01-25T14:26:37.008Z,102.85
2019-01-25T14:29:06.610Z,102.05
2019-01-25T14:31:34.734Z,96.17
2019-01-25T14:34:02.835Z,105.43
2019-01-25T14:36:30.923Z,104.20
2019-01-25T14:38:59.027Z,105.87
2019-01-25T14:41:27.092Z,94.85
2019-01-25T14:43:55.177Z,96.22
2019-01-25T14:46:23.988Z,98.42
2019-01-25T14:48:52.080Z,90.87
2019-01-25T14:51:20.148Z,91.78
2019-01-25T14:53:50.918Z,99.05
2019-01-25T14:56:17.982Z,100.53
2019-01-25T14:58:46.085Z,104.17
2019-01-25T15:01:14.234Z,96.05
2019-01-25T15:03:42.295Z,98.58
2019-01-25T15:06:10.454Z,101.80
2019-01-25T15:08:38.515Z,92.50
2019-01-25T15:11:06.602Z,106.00
2019-01-25T15:13:34.725Z,97.83
2019-01-25T15:16:02.807Z,86.28
2019-01-25T15:18:30.875Z,94.73
2019-01-25T15:20:58.959Z,89.50
2019-01-25T15:23:27.053Z,96.12
2019-01-25T15:25:55.095Z,94.70
2019-01-25T15:28:23.155Z,91.30
2019-01-25T15:30:51.218Z,103.23
2019-01-25T15:33:19.283Z,93.60
2019-01-25T15:35:47.342Z,95.87
2019-01-25T15:38:15.422Z,96.73
2019-01-25T15:40:43.530Z,99.67
2019-01-25T15:43:11.637Z,95.40
2019-01-25T15:45:39.711Z,94.07
2019-01-25T15:48:07.784Z,91.73
2019-01-25T15:50:35.870Z,91.47
2019-01-25T15:53:04.114Z,94.07
2019-01-25T15:55:32.450Z,93.72
2019-01-25T15:58:00.502Z,82.90
2019-01-25T16:00:29.611Z,81.63
2019-01-25T16:02:57.666Z,89.53
2019-01-25T16:05:25.970Z,99.30
2019-01-25T16:07:54.298Z,96.67
2019-01-25T16:10:22.426Z,85.67
2019-01-25T16:13:09.818Z,94.47
2019-01-25T16:15:37.867Z,92.63
2019-01-25T16:18:06.025Z,85.22
2019-01-25T16:20:34.090Z,84.65
2019-01-25T16:23:02.178Z,100.87
2019-01-25T16:25:31.249Z,87.80
2019-01-25T16:27:59.287Z,89.17
2019-01-25T16:30:28.390Z,96.97
2019-01-25T16:32:56.468Z,87.02
2019-01-25T16:35:24.526Z,88.97
2019-01-25T16:37:52.577Z,88.30
2019-01-25T16:40:22.181Z,114.50
2019-01-25T16:42:50.241Z,89.05
2019-01-25T16:45:19.679Z,87.20
2019-01-25T16:47:47.760Z,90.83
2019-01-25T16:50:23.440Z,83.67
2019-01-25T16:52:45.609Z,92.10
2019-01-25T16:55:14.851Z,87.27
2019-01-25T16:57:42.986Z,84.05
2019-01-25T17:00:15.479Z,85.40
2019-01-25T17:02:43.551Z,73.03
2019-01-25T17:05:11.863Z,80.73
2019-01-25T17:07:39.919Z,62.08
2019-01-25T17:10:09.544Z,58.15
2019-01-25T17:12:37.592Z,57.40
2019-01-25T17:15:07.542Z,54.65
2019-01-25T17:17:35.605Z,55.93
2019-01-25T17:20:05.338Z,53.00
2019-01-25T17:22:33.407Z,45.03
2019-01-25T17:25:01.458Z,41.43
2019-01-25T17:27:29.631Z,41.90
2019-01-25T17:29:57.706Z,33.23
2019-01-25T17:32:25.783Z,32.15
2019-01-25T17:34:53.826Z,30.12
2019-01-25T17:37:22.649Z,27.50
2019-01-25T17:39:50.824Z,27.67
2019-01-25T17:42:18.975Z,31.02
2019-01-25T17:44:47.029Z,30.32
2019-01-25T17:47:15.095Z,35.10
2019-01-25T17:49:43.160Z,32.53
2019-01-25T17:52:11.236Z,39.60
2019-01-25T17:54:39.267Z,36.30
2019-01-25T17:57:07.371Z,45.85
2019-01-25T17:59:35.427Z,42.25
2019-01-25T18:02:03.521Z,41.27
2019-01-25T18:04:31.638Z,39.73
2019-01-25T18:06:59.696Z,43.83
2019-01-25T18:09:27.769Z,45.05
2019-01-25T18:11:55.894Z,43.45
2019-01-25T18:14:23.962Z,48.60
2019-01-25T18:16:52.232Z,47.88
2019-01-25T18:19:20.350Z,49.18
2019-01-25T18:21:48.402Z,45.07
2019-01-25T18:24:16.460Z,45.00
2019-01-25T18:26:44.611Z,48.08
2019-01-25T18:29:12.670Z,47.58
2019-01-25T18:31:40.730Z,44.23
2019-01-25T18:34:08.830Z,43.42
2019-01-25T18:36:37.077Z,44.58
2019-01-25T18:39:06.586Z,43.63
2019-01-25T18:41:35.425Z,45.27
2019-01-25T18:44:03.745Z,46.48
2019-01-25T18:46:31.798Z,45.73
2019-01-25T18:48:59.875Z,46.53
2019-01-25T18:51:27.970Z,47.50
2019-01-25T18:53:56.058Z,49.57
2019-01-25T18:56:24.274Z,50.27
2019-01-25T18:58:52.430Z,49.67
2019-01-25T19:01:20.490Z,48.75
2019-01-25T19:03:48.554Z,52.47
2019-01-25T19:06:16.686Z,51.05
2019-01-25T19:08:44.886Z,49.05
2019-01-25T19:11:12.996Z,51.48
2019-01-25T19:13:41.051Z,48.03
2019-01-25T19:16:09.278Z,46.30
2019-01-25T19:18:37.394Z,52.15
2019-01-25T19:21:05.573Z,53.20
2019-01-25T19:23:33.631Z,51.80
2019-01-25T19:26:01.694Z,52.38
2019-01-25T19:28:29.746Z,55.00
2019-01-25T19:30:57.810Z,54.50
2019-01-25T19:33:25.874Z,51.35
2019-01-25T19:35:53.990Z,51.25
2019-01-25T19:38:22.055Z,52.90
2019-01-25T19:40:50.119Z,58.60
2019-01-25T19:43:18.185Z,52.48
2019-01-25T19:45:46.346Z,59.15
2019-01-25T19:48:14.452Z,62.33
2019-01-25T19:50:42.490Z,61.15
2019-01-25T19:53:10.566Z,59.27
2019-01-25T19:55:39.403Z,59.70
2019-01-25T19:58:09.058Z,60.10
2019-01-25T20:00:38.447Z,55.00
2019-01-25T20:03:06.538Z,58.70
2019-01-25T20:05:34.644Z,60.65
2019-01-25T20:08:02.717Z,56.53
2019-01-25T20:10:30.778Z,63.40
2019-01-25T20:12:58.910Z,61.77
2019-01-25T20:15:27.435Z,56.88
2019-01-25T20:17:55.505Z,66.35
2019-01-25T20:20:26.003Z,66.50
2019-01-25T20:22:54.081Z,62.45
2019-01-25T20:25:22.160Z,68.37
2019-01-25T20:27:50.222Z,65.75
2019-01-25T20:30:22.781Z,67.42
2019-01-25T20:32:50.882Z,72.97
2019-01-25T20:35:20.014Z,72.55
2019-01-25T20:37:48.062Z,74.22
2019-01-25T20:40:16.697Z,64.75
2019-01-25T20:42:45.522Z,76.95
2019-01-25T20:45:15.071Z,84.25
2019-01-25T20:47:43.261Z,69.45
2019-01-25T20:50:12.866Z,56.55
2019-01-25T20:52:41.178Z,66.90
2019-01-25T20:55:10.808Z,65.37
2019-01-25T20:57:38.885Z,69.72
2019-01-25T21:00:14.234Z,66.95
2019-01-25T21:02:42.332Z,63.90
2019-01-25T21:05:10.531Z,67.35
2019-01-25T21:07:38.598Z,65.97
2019-01-25T21:10:11.065Z,57.17
2019-01-25T21:12:39.183Z,61.58
2019-01-25T21:15:09.065Z,64.10
2019-01-25T21:17:37.118Z,63.08
2019-01-25T21:20:06.864Z,58.75
2019-01-25T21:22:34.984Z,64.85
2019-01-25T21:25:03.810Z,67.67
2019-01-25T21:27:31.863Z,65.80
2019-01-25T21:29:59.966Z,66.07
2019-01-25T21:32:28.023Z,65.55
2019-01-25T21:34:56.091Z,68.50
2019-01-25T21:37:24.162Z,71.35
2019-01-25T21:39:52.249Z,68.65
2019-01-25T21:42:20.282Z,66.07
2019-01-25T21:44:48.365Z,75.20
2019-01-25T21:47:16.455Z,69.82
2019-01-25T21:49:44.509Z,73.97
2019-01-25T21:52:12.576Z,70.67
2019-01-25T21:54:40.622Z,68.70
2019-01-25T21:57:08.751Z,61.02
2019-01-25T21:59:36.882Z,72.27
2019-01-25T22:02:05.041Z,73.52
2019-01-25T22:04:33.085Z,71.30
2019-01-25T22:07:01.150Z,59.50
2019-01-25T22:09:29.222Z,63.23
2019-01-25T22:11:57.334Z,72.37
2019-01-25T22:14:44.742Z,68.90
2019-01-25T22:17:12.818Z,65.78
2019-01-25T22:19:40.866Z,60.55
2019-01-25T22:22:08.955Z,57.43
2019-01-25T22:24:37.015Z,65.75
2019-01-25T22:27:05.150Z,66.87
2019-01-25T22:29:33.246Z,62.20
2019-01-25T22:32:01.306Z,65.03
2019-01-25T22:34:29.370Z,67.03
2019-01-25T22:36:57.434Z,56.10
2019-01-25T22:39:25.508Z,63.30
2019-01-25T22:41:53.573Z,61.28
2019-01-25T22:44:21.688Z,56.48
2019-01-25T22:46:49.738Z,53.90
2019-01-25T22:49:17.806Z,59.85
2019-01-25T22:51:50.982Z,62.50
2019-01-25T22:54:19.022Z,59.58
2019-01-25T22:56:47.114Z,64.07
2019-01-25T22:59:15.967Z,57.70
2019-01-25T23:01:44.248Z,60.38
2019-01-25T23:04:16.776Z,51.83
2019-01-25T23:06:45.425Z,63.33
2019-01-25T23:09:18.002Z,57.20
2019-01-25T23:11:46.063Z,61.48
2019-01-25T23:14:14.158Z,64.27
2019-01-25T23:16:42.238Z,63.85
2019-01-25T23:19:10.305Z,74.53
2019-01-25T23:21:38.415Z,56.28
2019-01-25T23:24:06.470Z,64.53
2019-01-25T23:26:34.587Z,68.67
2019-01-25T23:29:02.663Z,65.67
2019-01-25T23:31:30.710Z,62.48
2019-01-25T23:33:58.850Z,65.75
2019-01-25T23:36:26.975Z,54.38
2019-01-25T23:38:55.030Z,58.98
2019-01-25T23:41:23.103Z,62.15
2019-01-25T23:43:51.156Z,60.20
2019-01-25T23:46:19.203Z,52.67
2019-01-25T23:48:47.278Z,61.08
2019-01-25T23:51:15.342Z,63.35
2019-01-25T23:53:43.458Z,60.48
2019-01-25T23:56:11.535Z,56.05
2019-01-25T23:58:39.594Z,56.10
